Florence, Montana
Current Conditions -  °F | °C
As of 7:32 AM on Tuesday 27 Jan 2015 (Local Time) from KMSO Reporting Station
Haze Haze  
Wind Chill: 15°   Ceiling: Unl
Heat Index: 21°   Visibility: 1.5mi
Dew Point: 19°   Wind: 5mph
Humidity: 92%   Direction: 290°WNW
Pressure: 30.06"   Gusts: NA
Location:  46.63°N, 114.09°W
Report Text: KMSO 271432Z 29004KT 1 1/2SM BR CLR M06/M07 A3006 RMK AO2 VIS 3/4V4 I1000 T10611072
Loading
Personal Weather Stations






























Interactive Weather Map New forecast layout! Learn more

10-Day Weather Forecast

Advertisements
Track Severe Weather on mobile